Time;durP1;ratioP1;P1;durP2;ratioP2;P2;SDS_P1;SDS_P2;PMS_P1;PMS_P2;Temp;Humidity;BMP_temperature;BMP_pressure;BME280_temperature;BME280_humidity;BME280_pressure;Samples;Min_cycle;Max_cycle;Signal;HPM_P1;HPM_P2
2021/05/23 00:00:48;;;;;;;5.97;3.37;;;;;;;10.69;67.57;99543.75;154016;1096;103133;-80
2021/05/23 00:03:52;;;;;;;7.50;3.57;;;;;;;10.69;67.76;99538.42;154099;1096;103288;-81
2021/05/23 00:06:55;;;;;;;6.93;3.83;;;;;;;10.70;67.48;99548.07;154068;1101;103600;-82
2021/05/23 00:09:59;;;;;;;5.50;3.30;;;;;;;10.72;67.35;99546.06;154024;1101;103096;-81
2021/05/23 00:13:05;;;;;;;6.20;3.70;;;;;;;10.73;67.58;99542.41;154041;1101;103143;-81
2021/05/23 00:16:11;;;;;;;7.03;3.70;;;;;;;10.75;67.64;99543.06;153984;1101;103509;-81
2021/05/23 00:19:16;;;;;;;6.43;3.28;;;;;;;10.75;67.59;99543.06;154102;1095;103215;-80
2021/05/23 00:22:19;;;;;;;4.00;2.70;;;;;;;10.79;67.26;99549.72;154163;1095;103258;-80
2021/05/23 00:25:24;;;;;;;6.87;3.37;;;;;;;10.84;67.60;99543.88;154073;1101;103219;-80
2021/05/23 00:28:28;;;;;;;5.83;2.93;;;;;;;10.89;67.44;99552.18;154058;1101;103238;-81
2021/05/23 00:31:32;;;;;;;6.70;3.30;;;;;;;10.90;67.96;99552.02;154042;1101;103341;-81
2021/05/23 00:34:35;;;;;;;5.65;3.15;;;;;;;10.92;67.22;99555.34;154041;1101;103183;-80
2021/05/23 00:37:39;;;;;;;7.83;3.70;;;;;;;10.91;67.12;99559.03;154125;1101;103229;-83
2021/05/23 00:40:44;;;;;;;4.67;2.90;;;;;;;10.92;67.12;99558.02;154057;1095;103104;-80
2021/05/23 00:43:48;;;;;;;5.20;2.80;;;;;;;10.87;67.80;99563.02;153980;1101;103594;-80
2021/05/23 00:46:51;;;;;;;5.67;2.97;;;;;;;10.83;67.59;99564.38;153973;1101;103221;-78
2021/05/23 00:49:55;;;;;;;3.77;2.07;;;;;;;10.78;67.50;99569.42;153964;1101;103291;-79
2021/05/23 00:53:01;;;;;;;2.50;1.90;;;;;;;10.80;67.74;99573.57;153992;1095;103244;-79
2021/05/23 00:56:06;;;;;;;3.60;2.60;;;;;;;10.87;67.54;99573.70;153937;1096;103220;-81
2021/05/23 00:59:10;;;;;;;5.55;2.60;;;;;;;10.94;67.54;99574.69;153935;1095;103224;-77
2021/05/23 01:02:40;;;;;;;5.07;2.40;;;;;;;11.02;67.69;99567.66;153958;1101;103558;-77
2021/05/23 01:05:43;;;;;;;4.07;2.40;;;;;;;11.03;67.42;99566.64;153950;1096;104563;-79
2021/05/23 01:08:48;;;;;;;5.05;3.30;;;;;;;11.05;67.69;99575.30;153983;1096;103218;-80
2021/05/23 01:12:23;;;;;;;6.03;3.33;;;;;;;11.04;67.93;99582.49;154000;1101;103126;-77
2021/05/23 01:15:30;;;;;;;6.33;2.50;;;;;;;11.03;67.00;99571.98;154074;1101;103107;-81
2021/05/23 01:18:43;;;;;;;7.13;3.57;;;;;;;10.97;67.33;99579.69;154145;1101;103231;-83
2021/05/23 01:21:53;;;;;;;6.78;3.10;;;;;;;10.90;67.31;99583.22;154122;1096;103211;-81
2021/05/23 01:25:12;;;;;;;7.55;3.23;;;;;;;10.86;67.62;99580.06;154162;1096;103152;-81
2021/05/23 01:28:17;;;;;;;6.18;2.68;;;;;;;10.84;67.55;99581.25;154174;1101;103226;-83
2021/05/23 01:31:24;;;;;;;4.83;3.03;;;;;;;10.78;67.57;99588.92;154192;1095;103215;-80
2021/05/23 01:34:28;;;;;;;4.90;3.03;;;;;;;10.76;67.76;99593.59;154222;1101;103139;-82
2021/05/23 01:37:33;;;;;;;7.07;4.00;;;;;;;10.75;67.68;99588.42;154163;1101;103279;-82
2021/05/23 01:40:37;;;;;;;6.95;3.75;;;;;;;10.75;67.29;99586.58;154315;1101;103157;-83
2021/05/23 01:43:41;;;;;;;6.07;3.47;;;;;;;10.74;67.26;99594.75;154322;1095;103219;-83
2021/05/23 01:46:46;;;;;;;6.13;3.50;;;;;;;10.71;67.26;99598.60;154074;1101;103113;-84
2021/05/23 01:49:50;;;;;;;4.60;3.20;;;;;;;10.69;67.50;99595.27;154062;1101;103224;-78
2021/05/23 01:52:55;;;;;;;6.10;2.93;;;;;;;10.67;67.52;99597.28;154278;1101;103301;-79
2021/05/23 01:55:59;;;;;;;5.73;2.70;;;;;;;10.67;67.24;99594.61;154145;1101;103230;-80
2021/05/23 01:59:03;;;;;;;4.47;2.67;;;;;;;10.72;67.06;99584.27;153996;1096;103222;-79
2021/05/23 02:02:07;;;;;;;5.65;3.90;;;;;;;10.75;67.20;99597.25;154048;1101;103147;-80
2021/05/23 02:05:12;;;;;;;6.05;4.08;;;;;;;10.73;67.50;99593.92;153956;1096;103140;-79
2021/05/23 02:08:18;;;;;;;7.50;3.98;;;;;;;10.71;67.40;99598.60;153950;1096;103298;-79
2021/05/23 02:11:21;;;;;;;6.63;4.10;;;;;;;10.67;66.99;99605.28;154043;1101;103107;-80
2021/05/23 02:14:25;;;;;;;8.75;4.15;;;;;;;10.62;67.63;99604.95;154103;1101;103285;-82
2021/05/23 02:17:28;;;;;;;7.10;3.50;;;;;;;10.57;67.29;99601.98;154189;1101;103104;-82
2021/05/23 02:20:33;;;;;;;6.78;3.73;;;;;;;10.53;67.72;99595.32;154135;1101;103220;-84
2021/05/23 02:23:50;;;;;;;5.23;2.87;;;;;;;10.46;67.70;99600.48;154163;1095;103198;-80
2021/05/23 02:26:53;;;;;;;5.00;2.70;;;;;;;10.48;67.45;99598.47;154177;1101;103506;-81
2021/05/23 02:29:57;;;;;;;4.93;3.10;;;;;;;10.49;67.84;99600.16;154059;1101;103240;-80
2021/05/23 02:33:01;;;;;;;5.50;3.10;;;;;;;10.54;67.77;99589.79;153962;1096;103230;-78
2021/05/23 02:36:06;;;;;;;4.70;2.80;;;;;;;10.57;67.06;99597.47;153947;1101;103148;-78
2021/05/23 02:39:09;;;;;;;6.25;3.30;;;;;;;10.57;67.23;99594.80;154021;1095;103268;-81
2021/05/23 02:42:13;;;;;;;6.27;3.20;;;;;;;10.54;67.61;99600.46;154142;1096;103596;-79
2021/05/23 02:45:18;;;;;;;5.17;3.00;;;;;;;10.50;67.62;99604.47;153908;1101;103139;-82
2021/05/23 02:48:22;;;;;;;4.87;3.00;;;;;;;10.48;67.62;99609.14;154084;1101;103224;-81
2021/05/23 02:51:26;;;;;;;5.25;3.28;;;;;;;10.44;67.70;99610.48;154119;1101;103244;-81
2021/05/23 02:54:29;;;;;;;4.70;2.55;;;;;;;10.39;67.51;99618.14;154008;1096;103288;-78
2021/05/23 02:57:33;;;;;;;4.28;2.05;;;;;;;10.37;67.45;99614.81;153951;1101;103144;-80
2021/05/23 03:00:37;;;;;;;7.18;2.50;;;;;;;10.37;67.90;99613.00;153949;1101;103143;-77
2021/05/23 03:03:40;;;;;;;4.33;2.50;;;;;;;10.40;67.84;99625.98;153966;1101;103146;-76
2021/05/23 03:06:44;;;;;;;4.03;2.53;;;;;;;10.43;67.79;99622.17;153972;1096;103104;-77
2021/05/23 03:09:48;;;;;;;4.13;2.50;;;;;;;10.44;68.04;99615.82;153923;1095;103269;-80
2021/05/23 03:12:52;;;;;;;4.80;2.13;;;;;;;10.42;67.20;99612.48;154039;1095;103099;-80
2021/05/23 03:15:56;;;;;;;4.93;2.57;;;;;;;10.38;67.61;99613.83;153973;1101;103213;-79
2021/05/23 03:18:59;;;;;;;5.23;2.47;;;;;;;10.33;67.43;99611.64;153974;1101;104175;-82
2021/05/23 03:22:05;;;;;;;5.63;2.87;;;;;;;10.31;67.78;99605.65;154042;1094;103148;-80
2021/05/23 03:25:13;;;;;;;5.83;2.90;;;;;;;10.37;68.03;99604.15;154172;1101;103302;-83
2021/05/23 03:28:17;;;;;;;3.87;2.10;;;;;;;10.48;67.68;99603.81;154084;1101;103138;-85
2021/05/23 03:31:21;;;;;;;3.40;1.80;;;;;;;10.68;67.39;99606.97;154157;1101;103250;-81
2021/05/23 03:34:25;;;;;;;3.53;1.93;;;;;;;10.84;67.86;99615.94;154133;1101;103203;-83
2021/05/23 03:37:28;;;;;;;3.73;2.20;;;;;;;11.02;67.50;99607.70;154127;1096;103320;-83
2021/05/23 03:40:35;;;;;;;4.28;2.30;;;;;;;11.19;66.89;99604.80;154210;1096;103250;-83
2021/05/23 03:43:39;;;;;;;5.38;2.33;;;;;;;11.35;67.11;99609.22;154208;1101;103133;-83
2021/05/23 03:46:43;;;;;;;4.77;2.37;;;;;;;11.48;67.07;99614.02;154125;1101;103150;-83
2021/05/23 03:49:46;;;;;;;3.57;2.13;;;;;;;11.64;66.92;99622.95;154086;1101;103221;-83
2021/05/23 03:52:52;;;;;;;3.77;2.37;;;;;;;11.86;67.83;99618.66;154180;1095;103128;-81
2021/05/23 03:55:56;;;;;;;5.97;2.43;;;;;;;12.11;67.16;99617.50;154142;1096;103413;-81
2021/05/23 03:58:59;;;;;;;3.77;2.17;;;;;;;12.37;66.48;99624.31;154140;1101;103230;-80
2021/05/23 04:02:03;;;;;;;6.55;2.50;;;;;;;12.63;67.10;99621.25;154113;1095;103120;-81
2021/05/23 04:05:09;;;;;;;5.60;2.60;;;;;;;12.88;65.83;99626.36;154098;1095;103127;-79
2021/05/23 04:08:12;;;;;;;3.63;2.50;;;;;;;13.11;66.35;99631.63;154059;1095;103128;-80
2021/05/23 04:11:19;;;;;;;5.25;2.58;;;;;;;13.32;65.74;99629.06;154082;1096;103273;-81
2021/05/23 04:14:22;;;;;;;5.17;2.40;;;;;;;13.53;65.85;99639.02;154055;1096;103224;-82
2021/05/23 04:17:28;;;;;;;3.53;2.28;;;;;;;13.71;65.67;99633.23;154076;1101;103139;-81
2021/05/23 04:20:31;;;;;;;3.35;2.30;;;;;;;13.85;65.53;99634.21;154076;1096;103221;-80
2021/05/23 04:23:36;;;;;;;4.15;2.65;;;;;;;13.94;65.19;99633.08;154064;1101;103594;-80
2021/05/23 04:26:40;;;;;;;4.47;2.60;;;;;;;14.09;65.09;99646.45;154047;1095;103275;-81
2021/05/23 04:29:43;;;;;;;4.43;2.47;;;;;;;14.27;64.94;99626.38;154139;1095;103213;-79
2021/05/23 04:32:47;;;;;;;5.00;2.40;;;;;;;14.43;64.90;99634.16;153970;1101;103245;-80
2021/05/23 04:35:51;;;;;;;3.45;2.05;;;;;;;14.58;64.51;99638.66;153986;1101;103144;-80
2021/05/23 04:38:55;;;;;;;4.10;2.47;;;;;;;14.70;64.59;99629.03;154090;1101;103187;-82
2021/05/23 04:41:58;;;;;;;3.20;2.00;;;;;;;14.76;64.42;99636.33;154073;1101;103275;-79
2021/05/23 04:45:02;;;;;;;3.60;2.30;;;;;;;14.72;63.59;99637.72;154087;1096;103147;-83
2021/05/23 04:48:07;;;;;;;4.45;2.50;;;;;;;14.51;63.69;99651.98;154064;1096;103168;-83
2021/05/23 04:51:11;;;;;;;3.97;2.40;;;;;;;14.34;63.82;99657.63;153924;1096;103116;-78
2021/05/23 04:54:14;;;;;;;4.18;1.98;;;;;;;14.31;63.96;99662.55;154085;1096;103196;-77
2021/05/23 04:57:18;;;;;;;6.53;2.60;;;;;;;14.24;63.93;99657.13;153997;1101;103195;-79
2021/05/23 05:00:23;;;;;;;3.80;2.50;;;;;;;14.29;63.79;99664.59;153983;1095;103113;-80
2021/05/23 05:03:26;;;;;;;4.83;2.20;;;;;;;14.42;63.75;99656.66;153946;1095;103171;-78
2021/05/23 05:06:30;;;;;;;4.10;1.95;;;;;;;14.53;63.80;99664.20;153908;1101;103144;-80
2021/05/23 05:09:33;;;;;;;3.48;2.10;;;;;;;14.67;63.55;99669.72;153973;1096;103216;-87
2021/05/23 05:12:37;;;;;;;3.33;2.40;;;;;;;14.80;63.41;99669.83;154079;1101;103217;-82
2021/05/23 05:15:41;;;;;;;7.83;2.97;;;;;;;14.97;62.85;99670.34;154108;1095;103246;-82
2021/05/23 05:18:44;;;;;;;5.75;3.03;;;;;;;15.12;62.35;99668.37;154072;1101;103170;-83
2021/05/23 05:21:48;;;;;;;4.38;2.03;;;;;;;15.24;62.90;99671.36;154092;1101;103295;-79
2021/05/23 05:24:51;;;;;;;3.45;2.20;;;;;;;15.41;62.51;99673.71;154002;1101;103144;-80
2021/05/23 05:27:55;;;;;;;4.78;2.65;;;;;;;15.60;62.49;99678.34;153942;1101;103277;-80
2021/05/23 05:30:58;;;;;;;4.35;2.30;;;;;;;15.80;62.35;99675.80;153979;1095;103122;-79
2021/05/23 05:34:02;;;;;;;4.73;2.30;;;;;;;15.87;62.01;99676.63;153973;1101;103139;-79
2021/05/23 05:37:06;;;;;;;4.50;2.10;;;;;;;15.96;61.14;99674.59;153939;1095;103485;-79
2021/05/23 05:40:12;;;;;;;3.97;1.73;;;;;;;16.06;62.15;99674.20;154055;1101;103109;-79
2021/05/23 05:43:16;;;;;;;3.80;2.00;;;;;;;16.19;61.02;99684.19;153993;1101;103560;-77
2021/05/23 05:46:20;;;;;;;3.77;2.00;;;;;;;16.19;61.03;99679.63;154018;1096;103131;-77
2021/05/23 05:49:23;;;;;;;3.40;2.10;;;;;;;16.23;61.15;99680.05;154148;1101;103189;-79
2021/05/23 05:52:27;;;;;;;3.83;1.90;;;;;;;16.23;60.24;99685.44;153998;1101;103173;-76
2021/05/23 05:55:30;;;;;;;2.70;1.80;;;;;;;16.18;60.89;99698.66;154009;1096;103043;-79
2021/05/23 05:58:34;;;;;;;3.33;1.73;;;;;;;16.17;60.82;99691.64;153977;1101;103281;-80
2021/05/23 06:01:37;;;;;;;3.30;1.63;;;;;;;16.18;60.57;99690.59;153996;1096;103115;-79
2021/05/23 06:04:41;;;;;;;2.63;1.90;;;;;;;16.24;60.04;99700.53;154053;1101;103107;-77
2021/05/23 06:07:48;;;;;;;3.00;1.70;;;;;;;16.31;60.14;99696.00;154093;1101;103107;-78
2021/05/23 06:10:52;;;;;;;3.98;1.68;;;;;;;16.36;59.76;99707.00;154133;1101;103224;-74
2021/05/23 06:13:55;;;;;;;5.63;1.80;;;;;;;16.45;59.76;99708.44;154089;1101;103216;-75
2021/05/23 06:16:59;;;;;;;4.20;1.60;;;;;;;16.57;59.76;99702.45;154685;1101;103213;-76
2021/05/23 06:20:03;;;;;;;4.97;1.63;;;;;;;16.76;59.56;99716.97;154356;1101;103219;-78
2021/05/23 06:23:07;;;;;;;3.47;1.60;;;;;;;16.86;58.89;99706.66;154489;1101;103195;-78
2021/05/23 06:26:14;;;;;;;2.00;1.50;;;;;;;16.98;58.76;99709.55;154459;1101;103128;-75
2021/05/23 06:29:18;;;;;;;3.95;1.70;;;;;;;17.06;58.64;99712.84;154394;1101;103222;-78
2021/05/23 06:32:22;;;;;;;3.27;1.90;;;;;;;17.20;58.73;99712.84;154455;1095;103187;-77
2021/05/23 06:35:28;;;;;;;2.77;1.50;;;;;;;17.30;58.67;99707.01;154138;1101;103232;-78
2021/05/23 06:38:31;;;;;;;5.10;1.70;;;;;;;17.26;57.79;99710.14;154165;1096;104074;-76
2021/05/23 06:41:36;;;;;;;3.20;1.70;;;;;;;17.13;57.89;99718.25;154061;1101;103243;-76
2021/05/23 06:44:39;;;;;;;2.67;1.40;;;;;;;17.12;58.50;99711.19;154130;1101;103246;-76
2021/05/23 06:47:43;;;;;;;3.83;1.38;;;;;;;17.08;58.05;99718.03;154224;1095;103250;-77
2021/05/23 06:50:47;;;;;;;3.57;1.40;;;;;;;17.00;57.71;99718.26;154064;1101;103226;-77
2021/05/23 06:53:50;;;;;;;4.58;1.68;;;;;;;16.96;57.61;99727.80;154005;1101;103221;-75
2021/05/23 06:56:54;;;;;;;2.37;1.40;;;;;;;16.96;57.72;99725.11;154174;1095;103227;-76
2021/05/23 06:59:57;;;;;;;1.50;1.13;;;;;;;16.92;57.02;99721.14;154169;1101;103319;-80
2021/05/23 07:03:01;;;;;;;3.15;2.00;;;;;;;16.88;57.87;99721.58;154201;1101;103221;-76
2021/05/23 07:06:05;;;;;;;2.50;1.10;;;;;;;16.79;56.61;99733.56;154117;1101;103129;-77
2021/05/23 07:09:09;;;;;;;2.27;0.90;;;;;;;16.65;54.90;99748.06;154015;1096;103195;-78
2021/05/23 07:12:12;;;;;;;1.88;1.20;;;;;;;16.59;56.38;99743.47;154252;1101;103199;-78
2021/05/23 07:15:16;;;;;;;1.57;0.90;;;;;;;16.60;56.55;99742.45;154007;1101;103183;-80
2021/05/23 07:18:20;;;;;;;2.90;0.90;;;;;;;16.61;56.78;99738.70;154186;1101;103250;-78
2021/05/23 07:21:24;;;;;;;2.38;1.00;;;;;;;16.68;56.18;99739.55;153950;1096;103547;-77
2021/05/23 07:24:27;;;;;;;2.20;0.95;;;;;;;16.58;55.00;99745.34;153926;1101;103216;-79
2021/05/23 07:27:31;;;;;;;2.50;1.07;;;;;;;16.55;55.76;99737.69;153994;1095;103520;-78
2021/05/23 07:30:35;;;;;;;2.07;0.93;;;;;;;16.52;54.06;99756.94;153982;1101;103331;-77
2021/05/23 07:33:38;;;;;;;2.53;0.90;;;;;;;16.51;54.77;99763.34;153965;1097;103113;-78
2021/05/23 07:36:42;;;;;;;2.08;0.90;;;;;;;16.49;55.30;99760.88;153980;1095;103240;-78
2021/05/23 07:39:45;;;;;;;2.93;1.00;;;;;;;16.48;54.99;99769.98;154042;1101;103155;-78
2021/05/23 07:42:49;;;;;;;1.83;0.80;;;;;;;16.58;54.79;99764.20;154114;1101;103141;-77
2021/05/23 07:45:53;;;;;;;2.48;1.00;;;;;;;16.67;54.99;99762.98;154046;1101;103264;-78
2021/05/23 07:48:56;;;;;;;2.68;1.00;;;;;;;16.80;54.43;99756.78;153968;1101;103130;-79
2021/05/23 07:52:00;;;;;;;3.07;1.00;;;;;;;16.90;54.20;99744.77;153953;1101;103199;-76
2021/05/23 07:55:04;;;;;;;4.00;0.85;;;;;;;17.00;54.25;99753.30;153896;1096;104310;-77
2021/05/23 07:58:08;;;;;;;2.00;0.70;;;;;;;16.95;50.99;99761.98;153971;1101;103107;-78
2021/05/23 08:01:13;;;;;;;2.80;0.85;;;;;;;16.83;53.73;99763.65;153955;1101;103227;-77
2021/05/23 08:04:16;;;;;;;2.43;0.60;;;;;;;16.97;55.05;99761.78;153976;1101;103185;-75
2021/05/23 08:07:20;;;;;;;1.43;0.70;;;;;;;17.07;52.96;99772.97;153980;1095;103104;-78
2021/05/23 08:10:23;;;;;;;1.30;0.85;;;;;;;17.11;52.11;99773.39;153935;1101;103206;-77
2021/05/23 08:13:27;;;;;;;3.47;0.80;;;;;;;17.08;50.56;99770.08;153997;1096;103218;-77
2021/05/23 08:16:31;;;;;;;3.43;1.00;;;;;;;17.03;52.81;99787.91;153954;1096;103267;-77
2021/05/23 08:19:34;;;;;;;2.38;0.80;;;;;;;17.07;53.25;99778.36;154013;1096;103567;-77
2021/05/23 08:22:38;;;;;;;1.48;0.70;;;;;;;17.14;52.05;99783.77;154022;1096;103262;-76
2021/05/23 08:25:41;;;;;;;2.23;0.80;;;;;;;17.18;52.89;99791.22;153984;1095;103557;-74
2021/05/23 08:28:45;;;;;;;1.70;0.77;;;;;;;17.32;52.26;99785.83;154068;1101;103230;-76
2021/05/23 08:31:48;;;;;;;3.03;0.93;;;;;;;17.35;52.67;99777.33;154010;1096;103247;-80
2021/05/23 08:34:52;;;;;;;2.13;0.90;;;;;;;17.46;50.49;99788.31;153960;1096;103216;-79
2021/05/23 08:37:56;;;;;;;1.48;0.75;;;;;;;17.52;52.12;99796.61;153948;1101;103226;-73
2021/05/23 08:41:00;;;;;;;2.28;0.90;;;;;;;17.71;51.42;99797.62;153917;1096;103217;-73
2021/05/23 08:44:05;;;;;;;0.98;0.60;;;;;;;17.81;51.16;99785.33;153985;1096;103099;-76
2021/05/23 08:47:08;;;;;;;2.50;0.83;;;;;;;17.97;51.83;99794.03;154041;1101;103245;-79
2021/05/23 08:50:16;;;;;;;1.63;0.73;;;;;;;18.19;51.56;99787.30;154370;1101;103564;-80
2021/05/23 08:53:21;;;;;;;2.47;0.90;;;;;;;18.18;48.88;99790.22;153920;1096;103224;-81
2021/05/23 08:56:24;;;;;;;3.07;0.70;;;;;;;18.29;50.52;99784.14;154075;1101;103492;-81
2021/05/23 08:59:28;;;;;;;2.03;0.70;;;;;;;18.32;46.99;99785.58;154087;1095;103096;-81
2021/05/23 09:02:31;;;;;;;1.30;0.70;;;;;;;18.40;49.12;99786.17;154081;1101;103251;-76
2021/05/23 09:05:37;;;;;;;2.93;1.40;;;;;;;18.44;50.49;99773.06;153954;1101;103217;-78
2021/05/23 09:08:40;;;;;;;2.17;0.80;;;;;;;18.54;49.57;99780.70;154588;1101;103679;-76
2021/05/23 09:11:53;;;;;;;2.23;0.80;;;;;;;18.38;49.07;99782.86;154018;1101;103489;-77
2021/05/23 09:14:57;;;;;;;1.47;0.60;;;;;;;18.32;49.13;99788.28;154190;1101;103128;-76
2021/05/23 09:18:10;;;;;;;2.30;0.70;;;;;;;18.28;49.19;99790.58;154208;1101;103279;-75
2021/05/23 09:21:15;;;;;;;2.73;0.57;;;;;;;18.37;49.31;99789.29;155037;1101;103166;-77
2021/05/23 09:24:20;;;;;;;1.27;0.63;;;;;;;18.41;48.48;99790.52;154303;1095;103221;-79
2021/05/23 09:27:27;;;;;;;1.47;0.60;;;;;;;18.42;49.05;99797.59;154070;1101;103160;-77
2021/05/23 09:30:33;;;;;;;1.13;0.60;;;;;;;18.41;46.87;99801.31;154039;1096;103141;-76
2021/05/23 09:33:44;;;;;;;3.93;0.98;;;;;;;18.31;47.99;99806.36;153973;1101;103187;-76
2021/05/23 09:36:48;;;;;;;2.15;0.80;;;;;;;18.28;47.68;99804.08;154028;1101;103128;-77
2021/05/23 09:39:52;;;;;;;1.10;0.60;;;;;;;18.37;48.25;99800.09;153977;1095;103126;-76
2021/05/23 09:42:56;;;;;;;1.60;0.80;;;;;;;18.40;47.95;99793.45;153932;1096;103118;-78
2021/05/23 09:46:00;;;;;;;2.83;0.87;;;;;;;18.43;48.11;99793.00;153988;1094;103560;-78
2021/05/23 09:49:04;;;;;;;2.63;0.70;;;;;;;18.45;46.52;99790.91;153984;1096;103221;-76
2021/05/23 09:52:10;;;;;;;2.78;0.70;;;;;;;18.46;48.26;99803.39;154053;1101;103220;-76
2021/05/23 09:55:13;;;;;;;1.93;0.65;;;;;;;18.59;48.16;99803.32;154022;1096;103195;-77
2021/05/23 09:58:22;;;;;;;1.70;0.80;;;;;;;18.70;48.36;99801.78;153987;1101;103103;-77
2021/05/23 10:01:28;;;;;;;2.13;0.70;;;;;;;18.74;47.63;99810.28;154027;1101;103231;-78
2021/05/23 10:04:32;;;;;;;3.08;1.43;;;;;;;18.63;46.12;99819.94;154034;1101;103289;-73
2021/05/23 10:07:36;;;;;;;4.60;0.90;;;;;;;18.64;47.48;99822.39;154012;1096;103132;-73
2021/05/23 10:10:39;;;;;;;2.80;0.93;;;;;;;18.71;47.74;99826.95;153976;1101;103158;-77
2021/05/23 10:13:43;;;;;;;4.27;0.73;;;;;;;18.86;46.60;99832.08;153986;1101;103114;-77
2021/05/23 10:16:51;;;;;;;1.53;0.70;;;;;;;19.07;47.39;99831.72;154300;1096;103179;-80
2021/05/23 10:19:56;;;;;;;2.10;0.63;;;;;;;19.30;46.63;99830.30;154197;1101;103360;-78
2021/05/23 10:23:07;;;;;;;1.33;0.50;;;;;;;19.38;43.56;99833.57;154026;1101;103221;-79
2021/05/23 10:26:13;;;;;;;1.70;0.70;;;;;;;19.21;46.40;99833.28;154157;1101;103170;-79
2021/05/23 10:29:18;;;;;;;2.13;0.70;;;;;;;19.28;45.70;99843.22;154101;1096;103120;-75
2021/05/23 10:32:26;;;;;;;2.28;0.60;;;;;;;19.39;45.30;99840.63;154096;1101;103099;-78
2021/05/23 10:35:34;;;;;;;1.85;0.80;;;;;;;19.38;46.05;99838.98;154191;1096;103222;-79
2021/05/23 10:38:38;;;;;;;2.73;0.60;;;;;;;19.50;45.65;99852.61;154290;1101;103470;-78
2021/05/23 10:41:42;;;;;;;1.53;0.75;;;;;;;19.68;45.16;99843.70;153954;1096;103454;-78
2021/05/23 10:44:47;;;;;;;2.43;0.70;;;;;;;19.85;46.25;99841.28;153966;1101;103216;-79
2021/05/23 10:47:51;;;;;;;1.90;0.70;;;;;;;19.99;45.90;99840.06;153975;1096;103624;-80
2021/05/23 10:50:54;;;;;;;1.28;0.60;;;;;;;20.15;44.60;99837.81;153974;1101;103164;-77
2021/05/23 10:53:58;;;;;;;2.60;0.80;;;;;;;20.31;43.84;99826.38;154001;1095;103304;-77
2021/05/23 10:57:03;;;;;;;1.83;0.70;;;;;;;20.44;44.93;99835.38;154026;1094;103487;-77
2021/05/23 11:00:10;;;;;;;0.97;0.63;;;;;;;20.58;43.27;99832.27;153947;1101;103165;-76
2021/05/23 11:03:15;;;;;;;6.13;1.37;;;;;;;20.66;44.76;99839.30;154000;1101;103496;-79
2021/05/23 11:06:22;;;;;;;1.65;0.73;;;;;;;20.79;43.52;99841.00;154016;1096;103250;-77
2021/05/23 11:09:35;;;;;;;1.30;0.70;;;;;;;20.87;44.45;99845.27;154085;1101;103548;-79
2021/05/23 11:12:50;;;;;;;2.07;0.70;;;;;;;20.94;44.25;99843.30;154049;1101;103221;-79
2021/05/23 11:15:54;;;;;;;1.50;0.70;;;;;;;20.85;43.69;99845.50;154115;1096;103139;-80
2021/05/23 11:19:04;;;;;;;2.03;0.60;;;;;;;20.87;44.58;99850.70;154100;1095;103099;-78
2021/05/23 11:22:08;;;;;;;1.80;0.68;;;;;;;20.91;44.70;99841.03;154122;1101;103141;-77
2021/05/23 11:25:13;;;;;;;1.20;0.70;;;;;;;20.93;43.84;99850.59;154341;1101;103221;-77
2021/05/23 11:28:21;;;;;;;1.40;0.70;;;;;;;20.86;42.05;99844.45;154159;1101;103147;-81
2021/05/23 11:31:30;;;;;;;1.00;0.60;;;;;;;20.58;43.39;99836.88;154369;1096;103221;-75
2021/05/23 11:34:33;;;;;;;2.57;0.70;;;;;;;20.66;43.66;99833.88;154019;1096;103120;-77
2021/05/23 11:37:41;;;;;;;1.83;0.60;;;;;;;20.72;40.44;99832.95;153978;1096;103206;-78
2021/05/23 11:40:45;;;;;;;3.88;1.10;;;;;;;20.70;43.03;99845.91;154116;1101;103131;-80
2021/05/23 11:43:55;;;;;;;2.33;0.67;;;;;;;20.76;43.34;99849.58;154321;1096;103122;-80
2021/05/23 11:47:01;;;;;;;1.30;0.70;;;;;;;20.90;43.23;99839.37;154219;1096;103221;-78
2021/05/23 11:50:06;;;;;;;1.60;0.70;;;;;;;21.00;42.71;99845.08;153956;1096;103220;-77
2021/05/23 11:53:09;;;;;;;1.73;0.70;;;;;;;20.94;42.05;99832.45;153999;1101;103179;-78
2021/05/23 11:56:17;;;;;;;1.70;0.87;;;;;;;20.81;42.41;99838.06;154196;1096;103224;-82
2021/05/23 11:59:20;;;;;;;2.85;0.70;;;;;;;20.84;42.59;99837.58;154066;1095;103216;-82
2021/05/23 12:02:30;;;;;;;2.00;0.50;;;;;;;21.06;41.57;99841.43;154041;1095;103198;-77
2021/05/23 12:05:44;;;;;;;2.78;0.65;;;;;;;21.27;42.61;99840.06;154411;1096;103188;-79
2021/05/23 12:08:48;;;;;;;1.30;0.60;;;;;;;21.34;42.14;99834.51;153957;1096;103285;-79
2021/05/23 12:11:56;;;;;;;1.28;0.50;;;;;;;21.24;41.57;99850.55;154152;1095;103272;-80
2021/05/23 12:14:59;;;;;;;1.15;0.60;;;;;;;21.02;41.23;99834.00;153964;1101;103188;-78
2021/05/23 12:18:03;;;;;;;1.83;0.73;;;;;;;20.86;41.40;99830.89;153913;1101;103196;-77
2021/05/23 12:21:09;;;;;;;2.87;0.60;;;;;;;20.73;40.53;99842.75;153967;1101;103125;-78
2021/05/23 12:24:13;;;;;;;2.83;0.60;;;;;;;20.68;41.62;99847.20;153925;1096;103241;-82
2021/05/23 12:27:32;;;;;;;0.70;0.50;;;;;;;20.47;40.67;99848.48;154041;1101;103212;-80
2021/05/23 12:30:35;;;;;;;0.80;0.53;;;;;;;20.34;40.52;99854.89;153958;1096;103244;-78
2021/05/23 12:33:40;;;;;;;0.90;0.50;;;;;;;20.07;41.19;99855.19;153944;1096;104120;-77
2021/05/23 12:36:44;;;;;;;1.20;0.57;;;;;;;20.09;41.61;99861.24;154110;1101;103222;-76
2021/05/23 12:39:48;;;;;;;1.17;0.60;;;;;;;20.16;41.64;99855.73;154028;1096;103184;-80
2021/05/23 12:42:51;;;;;;;2.03;0.70;;;;;;;20.10;41.36;99864.77;153958;1101;103136;-79
2021/05/23 12:46:00;;;;;;;1.33;0.60;;;;;;;20.12;41.17;99865.38;154009;1101;103193;-81
2021/05/23 12:49:14;;;;;;;1.45;0.40;;;;;;;20.23;41.71;99861.91;154180;1096;103149;-77
2021/05/23 12:52:17;;;;;;;2.80;0.57;;;;;;;20.20;40.74;99857.75;154178;1096;103184;-75
2021/05/23 12:55:21;;;;;;;2.37;0.97;;;;;;;20.36;41.58;99856.34;154138;1101;103168;-76
2021/05/23 12:58:25;;;;;;;0.90;0.58;;;;;;;20.45;41.39;99850.59;154055;1096;103364;-74
2021/05/23 13:01:31;;;;;;;2.05;0.50;;;;;;;20.58;41.54;99848.54;154074;1101;103221;-76
2021/05/23 13:04:35;;;;;;;2.20;0.60;;;;;;;20.67;41.58;99846.38;154082;1096;103107;-75
2021/05/23 13:07:39;;;;;;;1.90;0.70;;;;;;;20.83;40.95;99841.38;154040;1101;103228;-75
2021/05/23 13:10:44;;;;;;;1.10;0.50;;;;;;;20.86;41.03;99847.16;154065;1101;103222;-76
2021/05/23 13:13:48;;;;;;;1.25;0.63;;;;;;;20.87;40.65;99856.13;154103;1101;103243;-73
2021/05/23 13:16:56;;;;;;;1.90;0.90;;;;;;;20.75;39.93;99840.63;154085;1101;103133;-77
2021/05/23 13:20:01;;;;;;;1.67;0.90;;;;;;;20.79;40.91;99832.87;154116;1094;103099;-80
2021/05/23 13:23:06;;;;;;;2.73;0.60;;;;;;;20.91;40.93;99839.14;154080;1096;103126;-79
2021/05/23 13:26:14;;;;;;;2.27;1.10;;;;;;;20.99;40.82;99837.98;154115;1096;103263;-78
2021/05/23 13:29:18;;;;;;;2.07;1.00;;;;;;;20.94;40.50;99837.88;154039;1096;103247;-80
2021/05/23 13:32:23;;;;;;;6.88;6.15;;;;;;;20.89;40.29;99835.02;154144;1101;103067;-77
2021/05/23 13:35:28;;;;;;;1.33;0.83;;;;;;;20.77;40.08;99852.07;154039;1096;103226;-78
2021/05/23 13:38:31;;;;;;;3.53;2.80;;;;;;;20.82;40.52;99845.95;154105;1101;103141;-77
2021/05/23 13:41:37;;;;;;;27.83;17.10;;;;;;;20.86;39.97;99849.88;154004;1101;103188;-80
2021/05/23 13:44:41;;;;;;;52.98;35.15;;;;;;;20.75;39.86;99848.77;154127;1101;103467;-77
2021/05/23 13:47:46;;;;;;;7.30;5.43;;;;;;;20.75;40.41;99858.79;153983;1096;103221;-77
2021/05/23 13:50:49;;;;;;;3.35;2.40;;;;;;;20.84;39.82;99862.81;154090;1101;103122;-77
2021/05/23 13:53:53;;;;;;;20.75;16.10;;;;;;;20.83;40.06;99865.78;153987;1099;103139;-80
2021/05/23 13:56:58;;;;;;;18.63;13.10;;;;;;;20.83;39.76;99860.36;154011;1101;103278;-79
2021/05/23 14:00:02;;;;;;;26.08;13.35;;;;;;;20.82;40.06;99875.77;154311;1101;103168;-81
2021/05/23 14:03:15;;;;;;;275.37;95.40;;;;;;;20.71;39.58;99882.00;154259;1101;103236;-79
2021/05/23 14:06:18;;;;;;;21.70;10.00;;;;;;;20.60;40.08;99883.59;154235;1096;103104;-84
2021/05/23 14:09:22;;;;;;;15.63;9.47;;;;;;;20.44;39.90;99886.88;154034;1095;103187;-81